Fourmile, KY (40939)

2:22 PM EDT on July 25, 2014 (GMT -0400)
Colmar (KKYMIDDL2) Elev 1135 ft | 36.66 °N, 83.67 °W | Change Station

Current weather conditions updated 4 minutes ago

Partly Cloudy
Partly Cloudy
76.6 °F
Feels Like 78 °F
N
1.0
Wind Variable Wind from WSW

Today is forecast to be nearly the same temperature as yesterday.

Today
High -- | Low -- °F
--% Chance of Precip.
Yesterday
High -- | Low -- °F
Precip. -- in
6:34 AM 8:47 PM
Waning Crescent, 1% visible
Pressure 30.06 in
Visibility 10.0 miles
Clouds Mostly Cloudy 3100 ft
Mostly Cloudy 3900 ft
Heat Index 78 °F
Dew Point 66 °F
Humidity 69%
Rainfall 0.00 in
Snow Depth Not available.
UV 6 out of 12
Pollen 3.80 out of 12
Air Quality Not available.
Flu Activity Not available.
METAR K1A6 251815Z AUTO 01007KT 10SM BKN031 BKN039 25/18 A3006 RMK AO2 T02520184

More Conditions Fewer Conditions

Pressure 30.06 in
Visibility 10.0 miles
Clouds Mostly Cloudy 3100 ft
Mostly Cloudy 3900 ft
Heat Index 78 °F
Dew Point 66 °F
Humidity 69%
Rainfall 0.00 in
Snow Depth Not available.
UV 6 out of 12
Pollen 3.80 out of 12
Air Quality Not available.
Flu Activity Not available.
METAR K1A6 251815Z AUTO 01007KT 10SM BKN031 BKN039 25/18 A3006 RMK AO2 T02520184

More Conditions Fewer Conditions

10-Day Weather Forecast

Almanac

Astronomy

Jul. 25, 2014 Rise Set
Actual Time 6:34 AM EDT 8:47 PM EDT
Civil Twilight 6:05 AM EDT 9:16 PM EDT
Nautical Twilight 5:30 AM EDT 9:51 PM EDT
Astronomical Twilight 4:51 AM EDT 10:30 PM EDT
Moon 5:32 AM EDT 7:44 PM EDT
Length of Visible Light 15h 10m
Length of Day
14h 12m
Tomorrow will be 1m 34s shorter.
Waning Crescent, 1% of the Moon is Illuminated
Today
Waning Crescent
Jul 26
New
Aug 3
First Quarter
Aug 10
Full
Aug 17
Last Quarter

Today's Extremes

State Highs State Lows

Community

WunderPhotos

Upload Photos

1,737,372 photos uploaded!

Nearby

Snow Depth

Station Depth Elevation
No new snow has been reported.

Earthquake Activity

City Distance Mag. Time & Date
No recent earthquake activity has been reported nearby.
Minimum magnitude displayed is 2.5.

Coastal Water Temperatures

Place Temperature
No Stations Reporting

Nearby Weather Stations

Station Location Temp. Heat Index Dew Point Humidity Wind Precip. Elev Updated Type
Colmar, Middlesboro, KY 76.6 °F 78 °F 66 °F 69% WSW  at  1.0 mph - / hr 1135 ft 2:17 PM EDT Normal
RAWS YELLOW CREEK KY, Middlesboro, KY 78 °F 80 °F 65 °F 65% East  at  3 mph 0.00 in / hr 1089 ft 1:26 PM EDT MADIS
liford's, Barbourville, KY 77.7 °F 80 °F 68 °F 71% SSE  at  3.2 mph - / hr 1066 ft 2:16 PM EDT Normal
Mackey Bend, Barbourville, KY 81.1 °F 83 °F 66 °F 61% NW  at  3.2 mph 0.00 in / hr 1020 ft 2:22 PM EDT Rapid Fire
White Rocks View, Rose Hill, VA 77.9 °F 80 °F 66 °F 67% West  at  0.0 mph 0.00 in / hr 1470 ft 2:22 PM EDT Rapid Fire

Show More Stations Show Fewer Stations